Menu Close Menu
Station Historical Data
Daily Summary for September 15, 2017 Units:  Metric    English   Both
« Previous Day
Next Day »
Daily Weekly Monthly Yearly Custom
  High: Low: Average:
Temperature: 28.2 °C 16.3 °C 21.3 °C
Dew Point: 20.5 °C 15.2 °C 17.8 °C
Humidity: 94% 56% 82%
Wind Speed: 8km/h 1.6km/h 4km/h
Wind Gust: 8km/h - -
Wind- - South
Pressure: 1019.9 hPa 1016.8 hPa -
Precipitation: 0 mm    
Historical Graphs
 
 
Tabular Data for September 15, 2017
Time Temperature Dew Point Pressure Wind Wind Speed Wind Gust Humidity Rainfall Rate (Hourly) solar Conditions
00:00 17.9 °C 16.7 °C 1016.8 hPa South 3.2 km/h 3.2 km/h 92% 0 mm WeatherDisplay:10.37 W/m2 CLR
00:05 17.9 °C 16.6 °C 1016.8 hPa South 3.2 km/h 3.2 km/h 92% 0 mm WeatherDisplay:10.37 W/m2 CLR
00:10 17.8 °C 16.5 °C 1016.8 hPa South 3.2 km/h 3.2 km/h 92% 0 mm WeatherDisplay:10.37 W/m2 CLR
00:15 17.7 °C 16.4 °C 1016.8 hPa South 3.2 km/h 3.2 km/h 92% 0 mm WeatherDisplay:10.37 W/m2 CLR
00:20 17.7 °C 16.3 °C 1016.8 hPa South 3.2 km/h 3.2 km/h 92% 0 mm WeatherDisplay:10.37 W/m2 CLR
00:25 17.6 °C 16.3 °C 1016.8 hPa South 3.2 km/h 3.2 km/h 92% 0 mm WeatherDisplay:10.37 W/m2 CLR
00:30 17.6 °C 16.3 °C 1017.2 hPa South 3.2 km/h 3.2 km/h 92% 0 mm WeatherDisplay:10.37 W/m2 CLR
00:35 17.6 °C 16.2 °C 1017.2 hPa South 3.2 km/h 3.2 km/h 92% 0 mm WeatherDisplay:10.37 W/m2 CLR
00:40 17.6 °C 16.2 °C 1017.2 hPa South 3.2 km/h 3.2 km/h 92% 0 mm WeatherDisplay:10.37 W/m2 CLR
00:45 17.5 °C 16.2 °C 1017.2 hPa South 3.2 km/h 3.2 km/h 92% 0 mm WeatherDisplay:10.37 W/m2 CLR
00:50 17.5 °C 16.2 °C 1017.2 hPa South 3.2 km/h 3.2 km/h 92% 0 mm WeatherDisplay:10.37 W/m2 CLR
00:55 17.5 °C 16.2 °C 1017.2 hPa South 3.2 km/h 3.2 km/h 92% 0 mm WeatherDisplay:10.37 W/m2 CLR
01:00 17.4 °C 16.1 °C 1017.2 hPa South 3.2 km/h 3.2 km/h 92% 0 mm WeatherDisplay:10.37 W/m2 CLR
01:05 17.4 °C 16.1 °C 1017.2 hPa South 3.2 km/h 3.2 km/h 92% 0 mm WeatherDisplay:10.37 W/m2 CLR
01:10 17.6 °C 16.4 °C 1017.2 hPa South 3.2 km/h 3.2 km/h 93% 0 mm WeatherDisplay:10.37 W/m2 CLR
01:15 17.6 °C 16.4 °C 1017.2 hPa South 3.2 km/h 3.2 km/h 93% 0 mm WeatherDisplay:10.37 W/m2 CLR
01:20 17.4 °C 16.1 °C 1017.2 hPa South 3.2 km/h 3.2 km/h 92% 0 mm WeatherDisplay:10.37 W/m2 CLR
01:25 17.4 °C 16.1 °C 1017.2 hPa South 3.2 km/h 3.2 km/h 92% 0 mm WeatherDisplay:10.37 W/m2 CLR
01:30 17.3 °C 16 °C 1017.2 hPa South 3.2 km/h 3.2 km/h 92% 0 mm WeatherDisplay:10.37 W/m2 CLR
01:40 17.2 °C 15.9 °C 1017.2 hPa South 3.2 km/h 3.2 km/h 92% 0 mm WeatherDisplay:10.37 W/m2 CLR
01:45 17.2 °C 15.9 °C 1017.2 hPa South 3.2 km/h 3.2 km/h 92% 0 mm WeatherDisplay:10.37 W/m2 CLR
01:50 17.2 °C 15.9 °C 1017.2 hPa South 3.2 km/h 3.2 km/h 92% 0 mm WeatherDisplay:10.37 W/m2 CLR
01:55 17.1 °C 15.8 °C 1017.2 hPa South 3.2 km/h 3.2 km/h 92% 0 mm WeatherDisplay:10.37 W/m2 CLR
02:00 17.1 °C 15.8 °C 1017.2 hPa South 3.2 km/h 3.2 km/h 92% 0 mm WeatherDisplay:10.37 W/m2 CLR
02:10 17.1 °C 15.9 °C 1017.2 hPa South 3.2 km/h 3.2 km/h 93% 0 mm WeatherDisplay:10.37 W/m2 CLR
02:15 17.2 °C 16 °C 1017.2 hPa South 3.2 km/h 3.2 km/h 93% 0 mm WeatherDisplay:10.37 W/m2 CLR
02:20 17.1 °C 15.9 °C 1017.2 hPa South 3.2 km/h 3.2 km/h 93% 0 mm WeatherDisplay:10.37 W/m2 CLR
02:25 17.1 °C 15.9 °C 1017.2 hPa South 3.2 km/h 3.2 km/h 93% 0 mm WeatherDisplay:10.37 W/m2 CLR
02:30 17.1 °C 15.9 °C 1017.2 hPa South 3.2 km/h 3.2 km/h 93% 0 mm WeatherDisplay:10.37 W/m2 CLR
02:35 17 °C 15.8 °C 1017.2 hPa South 3.2 km/h 3.2 km/h 93% 0 mm WeatherDisplay:10.37 W/m2 CLR
02:40 16.9 °C 15.8 °C 1017.2 hPa South 3.2 km/h 3.2 km/h 93% 0 mm WeatherDisplay:10.37 W/m2 CLR
02:45 16.9 °C 15.8 °C 1017.2 hPa South 3.2 km/h 3.2 km/h 93% 0 mm WeatherDisplay:10.37 W/m2 CLR
02:50 16.9 °C 15.8 °C 1017.2 hPa South 3.2 km/h 3.2 km/h 93% 0 mm WeatherDisplay:10.37 W/m2 CLR
02:55 16.9 °C 15.8 °C 1017.2 hPa South 3.2 km/h 3.2 km/h 93% 0 mm WeatherDisplay:10.37 W/m2 CLR
03:00 16.9 °C 15.8 °C 1017.2 hPa South 3.2 km/h 3.2 km/h 93% 0 mm WeatherDisplay:10.37 W/m2 CLR
03:05 16.9 °C 15.8 °C 1017.2 hPa South 3.2 km/h 3.2 km/h 93% 0 mm WeatherDisplay:10.37 W/m2 CLR
03:10 16.9 °C 15.8 °C 1017.2 hPa South 3.2 km/h 3.2 km/h 93% 0 mm WeatherDisplay:10.37 W/m2 CLR
03:15 16.9 °C 15.7 °C 1017.2 hPa South 3.2 km/h 3.2 km/h 93% 0 mm WeatherDisplay:10.37 W/m2 CLR
03:20 16.9 °C 15.7 °C 1017.2 hPa South 3.2 km/h 3.2 km/h 93% 0 mm WeatherDisplay:10.37 W/m2 CLR
03:25 16.9 °C 15.8 °C 1017.2 hPa South 3.2 km/h 3.2 km/h 93% 0 mm WeatherDisplay:10.37 W/m2 CLR
03:30 16.9 °C 15.7 °C 1017.2 hPa South 3.2 km/h 3.2 km/h 93% 0 mm WeatherDisplay:10.37 W/m2 CLR
03:35 16.9 °C 15.8 °C 1017.2 hPa South 3.2 km/h 3.2 km/h 93% 0 mm WeatherDisplay:10.37 W/m2 CLR
03:40 16.9 °C 15.7 °C 1017.2 hPa South 3.2 km/h 3.2 km/h 93% 0 mm WeatherDisplay:10.37 W/m2 CLR
03:45 16.9 °C 15.7 °C 1017.2 hPa South 3.2 km/h 3.2 km/h 93% 0 mm WeatherDisplay:10.37 W/m2 CLR
03:50 16.8 °C 15.7 °C 1016.8 hPa South 3.2 km/h 3.2 km/h 93% 0 mm WeatherDisplay:10.37 W/m2 CLR
03:55 16.8 °C 15.7 °C 1017.2 hPa South 3.2 km/h 3.2 km/h 93% 0 mm WeatherDisplay:10.37 W/m2 CLR
04:00 16.8 °C 15.7 °C 1017.2 hPa South 3.2 km/h 3.2 km/h 93% 0 mm WeatherDisplay:10.37 W/m2 CLR
04:10 16.7 °C 15.6 °C 1017.2 hPa South 3.2 km/h 3.2 km/h 93% 0 mm WeatherDisplay:10.37 W/m2 CLR
04:15 16.6 °C 15.5 °C 1017.2 hPa South 3.2 km/h 3.2 km/h 93% 0 mm WeatherDisplay:10.37 W/m2 CLR
04:20 16.6 °C 15.4 °C 1017.2 hPa South 3.2 km/h 3.2 km/h 93% 0 mm WeatherDisplay:10.37 W/m2 CLR
04:25 16.6 °C 15.4 °C 1017.2 hPa South 3.2 km/h 3.2 km/h 93% 0 mm WeatherDisplay:10.37 W/m2 CLR
04:30 16.5 °C 15.4 °C 1017.2 hPa South 3.2 km/h 3.2 km/h 93% 0 mm WeatherDisplay:10.37 W/m2 CLR
04:35 16.4 °C 15.3 °C 1017.2 hPa South 3.2 km/h 3.2 km/h 93% 0 mm WeatherDisplay:10.37 W/m2 CLR
04:40 16.4 °C 15.3 °C 1017.2 hPa South 3.2 km/h 3.2 km/h 93% 0 mm WeatherDisplay:10.37 W/m2 CLR
04:45 16.4 °C 15.3 °C 1017.2 hPa South 3.2 km/h 3.2 km/h 93% 0 mm WeatherDisplay:10.37 W/m2 CLR
04:50 16.3 °C 15.2 °C 1017.2 hPa South 3.2 km/h 3.2 km/h 93% 0 mm WeatherDisplay:10.37 W/m2 CLR
04:55 16.3 °C 15.2 °C 1017.2 hPa South 3.2 km/h 3.2 km/h 93% 0 mm WeatherDisplay:10.37 W/m2 CLR
05:00 16.4 °C 15.3 °C 1017.2 hPa South 3.2 km/h 3.2 km/h 93% 0 mm WeatherDisplay:10.37 W/m2 CLR
05:10 16.4 °C 15.3 °C 1017.5 hPa South 3.2 km/h 3.2 km/h 93% 0 mm WeatherDisplay:10.37 W/m2 CLR
05:15 16.5 °C 15.4 °C 1017.5 hPa South 3.2 km/h 3.2 km/h 93% 0 mm WeatherDisplay:10.37 W/m2 SCT
05:20 16.5 °C 15.3 °C 1017.5 hPa South 3.2 km/h 3.2 km/h 93% 0 mm WeatherDisplay:10.37 W/m2 SCT
05:25 16.4 °C 15.3 °C 1017.5 hPa South 3.2 km/h 3.2 km/h 93% 0 mm WeatherDisplay:10.37 W/m2 SCT
05:30 16.5 °C 15.3 °C 1017.5 hPa South 3.2 km/h 3.2 km/h 93% 0 mm WeatherDisplay:10.37 W/m2 SCT
05:35 16.5 °C 15.4 °C 1017.5 hPa South 3.2 km/h 3.2 km/h 93% 0 mm WeatherDisplay:10.37 W/m2 SCT
05:40 16.6 °C 15.4 °C 1017.5 hPa South 3.2 km/h 3.2 km/h 93% 0 mm WeatherDisplay:10.37 W/m2 SCT
05:45 16.6 °C 15.4 °C 1017.8 hPa South 3.2 km/h 3.2 km/h 93% 0 mm WeatherDisplay:10.37 W/m2 SCT
05:50 16.6 °C 15.4 °C 1017.8 hPa South 3.2 km/h 3.2 km/h 93% 0 mm WeatherDisplay:10.37 W/m2 SCT
05:55 16.6 °C 15.4 °C 1017.8 hPa South 3.2 km/h 3.2 km/h 93% 0 mm WeatherDisplay:10.37 W/m2 SCT
06:00 16.6 °C 15.5 °C 1017.8 hPa South 3.2 km/h 3.2 km/h 93% 0 mm WeatherDisplay:10.37 W/m2 SCT
06:10 16.6 °C 15.5 °C 1017.8 hPa South 3.2 km/h 3.2 km/h 93% 0 mm WeatherDisplay:10.37 W/m2 SCT
06:15 16.6 °C 15.5 °C 1018.2 hPa South 3.2 km/h 3.2 km/h 93% 0 mm WeatherDisplay:10.37 W/m2 SCT
06:20 16.6 °C 15.5 °C 1018.2 hPa South 3.2 km/h 3.2 km/h 93% 0 mm WeatherDisplay:10.37 W/m2 SCT
06:25 16.7 °C 15.5 °C 1018.2 hPa South 3.2 km/h 3.2 km/h 93% 0 mm WeatherDisplay:10.37 W/m2 SCT
06:30 16.7 °C 15.6 °C 1018.5 hPa South 3.2 km/h 3.2 km/h 93% 0 mm WeatherDisplay:10.37 W/m2 SCT
06:35 16.7 °C 15.5 °C 1018.5 hPa South 3.2 km/h 3.2 km/h 93% 0 mm WeatherDisplay:10.37 W/m2 SCT
06:40 16.6 °C 15.5 °C 1018.5 hPa South 3.2 km/h 3.2 km/h 93% 0 mm WeatherDisplay:10.37 W/m2 SCT
06:45 16.6 °C 15.4 °C 1018.5 hPa South 3.2 km/h 3.2 km/h 93% 0 mm WeatherDisplay:10.37 W/m2 SCT
06:50 16.6 °C 15.4 °C 1018.8 hPa South 3.2 km/h 3.2 km/h 93% 0 mm WeatherDisplay:10.37 W/m2 SCT
06:55 16.6 °C 15.4 °C 1018.8 hPa South 3.2 km/h 3.2 km/h 93% 0 mm WeatherDisplay:10.37 W/m2 SCT
07:00 16.7 °C 15.6 °C 1018.8 hPa South 3.2 km/h 3.2 km/h 93% 0 mm WeatherDisplay:10.37 W/m2 SCT
07:10 16.7 °C 15.5 °C 1018.8 hPa South 3.2 km/h 3.2 km/h 93% 0 mm WeatherDisplay:10.37 W/m2 SCT
07:15 16.6 °C 15.5 °C 1018.8 hPa South 3.2 km/h 3.2 km/h 93% 0 mm WeatherDisplay:10.37 W/m2 BKN
07:20 16.6 °C 15.4 °C 1018.8 hPa South 3.2 km/h 3.2 km/h 93% 0 mm WeatherDisplay:10.37 W/m2 BKN
07:25 16.6 °C 15.4 °C 1018.8 hPa South 3.2 km/h 3.2 km/h 93% 0 mm WeatherDisplay:10.37 W/m2 BKN
07:30 16.5 °C 15.4 °C 1019.2 hPa South 3.2 km/h 3.2 km/h 93% 0 mm WeatherDisplay:10.37 W/m2 BKN
07:40 16.4 °C 15.3 °C 1019.2 hPa South 3.2 km/h 3.2 km/h 93% 0 mm WeatherDisplay:10.37 W/m2 BKN
07:45 16.5 °C 15.4 °C 1019.2 hPa South 3.2 km/h 3.2 km/h 93% 0 mm WeatherDisplay:10.37 W/m2 BKN
07:50 16.6 °C 15.4 °C 1019.2 hPa South 3.2 km/h 3.2 km/h 93% 0 mm WeatherDisplay:10.37 W/m2 BKN
07:55 16.7 °C 15.7 °C 1019.2 hPa South 3.2 km/h 3.2 km/h 94% 0 mm WeatherDisplay:10.37 W/m2 BKN
08:00 16.8 °C 15.8 °C 1019.2 hPa South 3.2 km/h 3.2 km/h 94% 0 mm WeatherDisplay:10.37 W/m2 BKN
08:05 16.7 °C 15.8 °C 1019.5 hPa South 3.2 km/h 3.2 km/h 94% 0 mm WeatherDisplay:10.37 W/m2 BKN
08:10 16.8 °C 15.8 °C 1019.5 hPa South 3.2 km/h 3.2 km/h 94% 0 mm WeatherDisplay:10.37 W/m2 BKN
08:15 16.8 °C 15.9 °C 1019.5 hPa South 3.2 km/h 3.2 km/h 94% 0 mm WeatherDisplay:10.37 W/m2 SCT
08:20 17 °C 16 °C 1019.2 hPa South 3.2 km/h 3.2 km/h 94% 0 mm WeatherDisplay:10.37 W/m2 SCT
08:25 17.1 °C 16.2 °C 1019.2 hPa South 3.2 km/h 3.2 km/h 94% 0 mm WeatherDisplay:10.37 W/m2 SCT
08:30 17.2 °C 16.2 °C 1019.5 hPa South 3.2 km/h 3.2 km/h 94% 0 mm WeatherDisplay:10.37 W/m2 SCT
08:35 17.4 °C 16.4 °C 1019.5 hPa South 3.2 km/h 3.2 km/h 94% 0 mm WeatherDisplay:10.37 W/m2 SCT
08:40 17.5 °C 16.5 °C 1019.5 hPa South 3.2 km/h 3.2 km/h 94% 0 mm WeatherDisplay:10.37 W/m2 SCT
08:45 17.7 °C 16.7 °C 1019.5 hPa South 3.2 km/h 3.2 km/h 94% 0 mm WeatherDisplay:10.37 W/m2 SCT
08:50 17.9 °C 16.9 °C 1019.5 hPa South 3.2 km/h 3.2 km/h 94% 0 mm WeatherDisplay:10.37 W/m2 SCT
08:55 18.1 °C 17.1 °C 1019.5 hPa South 3.2 km/h 3.2 km/h 94% 0 mm WeatherDisplay:10.37 W/m2 SCT
09:00 18.3 °C 17.3 °C 1019.5 hPa South 3.2 km/h 3.2 km/h 94% 0 mm WeatherDisplay:10.37 W/m2 SCT
09:05 18.5 °C 17.5 °C 1019.5 hPa South 3.2 km/h 3.2 km/h 94% 0 mm WeatherDisplay:10.37 W/m2 SCT
09:10 18.7 °C 17.7 °C 1019.5 hPa South 3.2 km/h 3.2 km/h 94% 0 mm WeatherDisplay:10.37 W/m2 SCT
09:15 18.9 °C 17.9 °C 1019.5 hPa South 3.2 km/h 3.2 km/h 94% 0 mm WeatherDisplay:10.37 W/m2 SCT
09:20 19.2 °C 18.2 °C 1019.5 hPa South 3.2 km/h 3.2 km/h 94% 0 mm WeatherDisplay:10.37 W/m2 SCT
09:25 19.3 °C 18.3 °C 1019.5 hPa South 3.2 km/h 3.2 km/h 94% 0 mm WeatherDisplay:10.37 W/m2 SCT
09:30 19.6 °C 18.6 °C 1019.5 hPa South 3.2 km/h 3.2 km/h 94% 0 mm WeatherDisplay:10.37 W/m2 SCT
09:35 19.8 °C 18.9 °C 1019.5 hPa South 3.2 km/h 3.2 km/h 94% 0 mm WeatherDisplay:10.37 W/m2 SCT
09:40 20.1 °C 18.9 °C 1019.9 hPa South 3.2 km/h 3.2 km/h 93% 0 mm WeatherDisplay:10.37 W/m2 SCT
09:45 20.6 °C 19.2 °C 1019.9 hPa South 3.2 km/h 3.2 km/h 92% 0 mm WeatherDisplay:10.37 W/m2 SCT
09:50 20.9 °C 19.2 °C 1019.9 hPa South 3.2 km/h 3.2 km/h 90% 0 mm WeatherDisplay:10.37 W/m2 SCT
09:55 21.3 °C 19.4 °C 1019.9 hPa South 3.2 km/h 3.2 km/h 89% 0 mm WeatherDisplay:10.37 W/m2 SCT
10:00 21.6 °C 19.3 °C 1019.9 hPa South 3.2 km/h 3.2 km/h 87% 0 mm WeatherDisplay:10.37 W/m2 SCT
10:10 22.2 °C 19.4 °C 1019.9 hPa South 3.2 km/h 3.2 km/h 84% 0 mm WeatherDisplay:10.37 W/m2 SCT
10:15 22.6 °C 19.3 °C 1019.9 hPa SE 1.6 km/h 3.2 km/h 82% 0 mm WeatherDisplay:10.37 W/m2 BKN
10:20 22.8 °C 19.3 °C 1019.9 hPa East 1.6 km/h 1.6 km/h 81% 0 mm WeatherDisplay:10.37 W/m2 BKN
10:25 23 °C 19.8 °C 1019.9 hPa East 1.6 km/h 1.6 km/h 82% 0 mm WeatherDisplay:10.37 W/m2 BKN
10:30 23.2 °C 19.5 °C 1019.9 hPa East 1.6 km/h 1.6 km/h 80% 0 mm WeatherDisplay:10.37 W/m2 BKN
10:40 23.6 °C 19.6 °C 1019.9 hPa East 1.6 km/h 1.6 km/h 78% 0 mm WeatherDisplay:10.37 W/m2 BKN
10:45 24.1 °C 19.8 °C 1019.9 hPa East 1.6 km/h 1.6 km/h 77% 0 mm WeatherDisplay:10.37 W/m2 BKN
10:50 24.4 °C 19.9 °C 1019.9 hPa East 1.6 km/h 1.6 km/h 76% 0 mm WeatherDisplay:10.37 W/m2 BKN
10:55 24.8 °C 20.3 °C 1019.9 hPa East 1.6 km/h 1.6 km/h 76% 0 mm WeatherDisplay:10.37 W/m2 BKN
11:00 25.3 °C 20.3 °C 1019.9 hPa East 1.6 km/h 1.6 km/h 74% 0 mm WeatherDisplay:10.37 W/m2 BKN
11:05 25.6 °C 19.9 °C 1019.9 hPa East 1.6 km/h 1.6 km/h 71% 0 mm WeatherDisplay:10.37 W/m2 BKN
11:10 25.6 °C 19.7 °C 1019.9 hPa East 1.6 km/h 1.6 km/h 70% 0 mm WeatherDisplay:10.37 W/m2 BKN
11:15 25.5 °C 19.4 °C 1019.5 hPa SSE 4.8 km/h 4.8 km/h 69% 0 mm WeatherDisplay:10.37 W/m2 SCT
11:20 25.5 °C 19.8 °C 1019.5 hPa South 4.8 km/h 4.8 km/h 71% 0 mm WeatherDisplay:10.37 W/m2 SCT
11:25 25.4 °C 19.3 °C 1019.5 hPa South 4.8 km/h 4.8 km/h 69% 0 mm WeatherDisplay:10.37 W/m2 SCT
11:30 25.1 °C 19.5 °C 1019.5 hPa South 4.8 km/h 4.8 km/h 71% 0 mm WeatherDisplay:10.37 W/m2 SCT
11:35 25.1 °C 19.4 °C 1019.5 hPa South 4.8 km/h 4.8 km/h 71% 0 mm WeatherDisplay:10.37 W/m2 SCT
11:40 24.9 °C 19.8 °C 1019.5 hPa South 4.8 km/h 4.8 km/h 73% 0 mm WeatherDisplay:10.37 W/m2 SCT
11:45 25 °C 20.3 °C 1019.5 hPa South 4.8 km/h 4.8 km/h 75% 0 mm WeatherDisplay:10.37 W/m2 SCT
11:50 25.4 °C 20.4 °C 1019.5 hPa South 4.8 km/h 4.8 km/h 74% 0 mm WeatherDisplay:10.37 W/m2 SCT
11:55 25.9 °C 19.8 °C 1019.5 hPa South 4.8 km/h 4.8 km/h 69% 0 mm WeatherDisplay:10.37 W/m2 SCT
12:00 26.1 °C 20 °C 1019.5 hPa South 4.8 km/h 4.8 km/h 69% 0 mm WeatherDisplay:10.37 W/m2 SCT
12:05 26.6 °C 19.9 °C 1019.2 hPa South 4.8 km/h 4.8 km/h 67% 0 mm WeatherDisplay:10.37 W/m2 SCT
12:10 27.1 °C 20.5 °C 1019.5 hPa South 4.8 km/h 4.8 km/h 67% 0 mm WeatherDisplay:10.37 W/m2 SCT
12:15 27.2 °C 19.6 °C 1019.5 hPa SW 4.8 km/h 4.8 km/h 63% 0 mm WeatherDisplay:10.37 W/m2 SCT
12:20 26.9 °C 19.6 °C 1019.5 hPa West 4.8 km/h 4.8 km/h 64% 0 mm WeatherDisplay:10.37 W/m2 SCT
12:25 26.4 °C 19.6 °C 1019.5 hPa West 4.8 km/h 4.8 km/h 66% 0 mm WeatherDisplay:10.37 W/m2 SCT
12:30 26.1 °C 19.9 °C 1019.5 hPa West 4.8 km/h 4.8 km/h 69% 0 mm WeatherDisplay:10.37 W/m2 SCT
12:40 25.8 °C 20.4 °C 1019.2 hPa West 4.8 km/h 4.8 km/h 72% 0 mm WeatherDisplay:10.37 W/m2 SCT
12:45 25.8 °C 19.5 °C 1019.2 hPa West 4.8 km/h 4.8 km/h 68% 0 mm WeatherDisplay:10.37 W/m2 SCT
12:50 25.9 °C 19.1 °C 1019.2 hPa West 4.8 km/h 4.8 km/h 66% 0 mm WeatherDisplay:10.37 W/m2 SCT
12:55 26 °C 19.4 °C 1019.2 hPa West 4.8 km/h 4.8 km/h 67% 0 mm WeatherDisplay:10.37 W/m2 SCT
13:00 26.2 °C 19.8 °C 1019.2 hPa West 4.8 km/h 4.8 km/h 68% 0 mm WeatherDisplay:10.37 W/m2 SCT
13:05 26.2 °C 19.6 °C 1019.2 hPa West 4.8 km/h 4.8 km/h 67% 0 mm WeatherDisplay:10.37 W/m2 SCT
13:10 26.3 °C 20.2 °C 1019.2 hPa West 4.8 km/h 4.8 km/h 69% 0 mm WeatherDisplay:10.37 W/m2 SCT
13:15 26.2 °C 20.1 °C 1019.2 hPa WNW 3.2 km/h 4.8 km/h 69% 0 mm WeatherDisplay:10.37 W/m2 BKN
13:20 26.3 °C 20.2 °C 1019.2 hPa NW 3.2 km/h 3.2 km/h 69% 0 mm WeatherDisplay:10.37 W/m2 BKN
13:25 26.6 °C 19.7 °C 1019.2 hPa NW 3.2 km/h 3.2 km/h 66% 0 mm WeatherDisplay:10.37 W/m2 BKN
13:30 27.2 °C 19 °C 1019.2 hPa NW 3.2 km/h 3.2 km/h 61% 0 mm WeatherDisplay:10.37 W/m2 BKN
13:35 27.4 °C 19.5 °C 1019.2 hPa NW 3.2 km/h 3.2 km/h 62% 0 mm WeatherDisplay:10.37 W/m2 BKN
13:40 27.7 °C 20.1 °C 1019.2 hPa NW 3.2 km/h 3.2 km/h 63% 0 mm WeatherDisplay:10.37 W/m2 BKN
13:50 28.2 °C 19.7 °C 1019.2 hPa NW 3.2 km/h 3.2 km/h 60% 0 mm WeatherDisplay:10.37 W/m2 BKN
13:55 27.9 °C 19.7 °C 1018.8 hPa NW 3.2 km/h 3.2 km/h 61% 0 mm WeatherDisplay:10.37 W/m2 BKN
14:00 27.7 °C 19.4 °C 1018.8 hPa NW 3.2 km/h 3.2 km/h 61% 0 mm WeatherDisplay:10.37 W/m2 BKN
14:10 27.4 °C 18.9 °C 1018.8 hPa NW 3.2 km/h 3.2 km/h 60% 0 mm WeatherDisplay:10.37 W/m2 BKN
14:15 27.4 °C 19.4 °C 1018.8 hPa WSW 3.2 km/h 3.2 km/h 62% 0 mm WeatherDisplay:10.37 W/m2 BKN
14:20 27.2 °C 19.1 °C 1018.5 hPa SW 3.2 km/h 3.2 km/h 61% 0 mm WeatherDisplay:10.37 W/m2 BKN
14:25 27.2 °C 19 °C 1018.5 hPa SW 3.2 km/h 3.2 km/h 61% 0 mm WeatherDisplay:10.37 W/m2 BKN
14:30 27.3 °C 19.9 °C 1018.5 hPa SW 3.2 km/h 3.2 km/h 64% 0 mm WeatherDisplay:10.37 W/m2 BKN
14:40 27.6 °C 20.1 °C 1018.5 hPa SW 3.2 km/h 3.2 km/h 64% 0 mm WeatherDisplay:10.37 W/m2 BKN
14:45 27.6 °C 19.7 °C 1018.5 hPa SW 3.2 km/h 3.2 km/h 62% 0 mm WeatherDisplay:10.37 W/m2 BKN
14:50 27.5 °C 19.6 °C 1018.5 hPa SW 3.2 km/h 3.2 km/h 62% 0 mm WeatherDisplay:10.37 W/m2 BKN
14:55 27.4 °C 18.9 °C 1018.2 hPa SW 3.2 km/h 3.2 km/h 60% 0 mm WeatherDisplay:10.37 W/m2 BKN
15:00 27.3 °C 19.2 °C 1018.2 hPa SW 3.2 km/h 3.2 km/h 61% 0 mm WeatherDisplay:10.37 W/m2 BKN
15:10 27.1 °C 20.4 °C 1018.2 hPa SW 3.2 km/h 3.2 km/h 67% 0 mm WeatherDisplay:10.37 W/m2 BKN
15:15 27.1 °C 20.4 °C 1018.2 hPa NW 4.8 km/h 4.8 km/h 67% 0 mm WeatherDisplay:10.37 W/m2 BKN
15:20 27.2 °C 20.1 °C 1018.2 hPa NNW 4.8 km/h 4.8 km/h 65% 0 mm WeatherDisplay:10.37 W/m2 BKN
15:25 27.3 °C 18.8 °C 1018.2 hPa NNW 4.8 km/h 4.8 km/h 60% 0 mm WeatherDisplay:10.37 W/m2 BKN
15:30 27.2 °C 18.8 °C 1017.8 hPa NNW 4.8 km/h 4.8 km/h 60% 0 mm WeatherDisplay:10.37 W/m2 BKN
15:35 27.2 °C 18.8 °C 1017.8 hPa NNW 4.8 km/h 4.8 km/h 60% 0 mm WeatherDisplay:10.37 W/m2 BKN
15:40 27.2 °C 18.2 °C 1017.8 hPa NNW 4.8 km/h 4.8 km/h 58% 0 mm WeatherDisplay:10.37 W/m2 BKN
15:45 27.2 °C 17.9 °C 1017.8 hPa NNW 4.8 km/h 4.8 km/h 57% 0 mm WeatherDisplay:10.37 W/m2 BKN
15:50 27.2 °C 18.2 °C 1017.8 hPa NNW 4.8 km/h 4.8 km/h 58% 0 mm WeatherDisplay:10.37 W/m2 BKN
15:55 27.2 °C 17.6 °C 1017.8 hPa NNW 4.8 km/h 4.8 km/h 56% 0 mm WeatherDisplay:10.37 W/m2 BKN
16:00 27.2 °C 18.4 °C 1017.8 hPa NNW 4.8 km/h 4.8 km/h 59% 0 mm WeatherDisplay:10.37 W/m2 BKN
16:05 27.1 °C 18.4 °C 1017.8 hPa NNW 4.8 km/h 4.8 km/h 59% 0 mm WeatherDisplay:10.37 W/m2 BKN
16:10 27.1 °C 18.1 °C 1017.8 hPa NNW 4.8 km/h 4.8 km/h 58% 0 mm WeatherDisplay:10.37 W/m2 BKN
16:15 27.2 °C 18.8 °C 1017.8 hPa WSW 4.8 km/h 4.8 km/h 60% 0 mm WeatherDisplay:10.37 W/m2 BKN
16:20 27.4 °C 19 °C 1017.8 hPa SSW 4.8 km/h 4.8 km/h 60% 0 mm WeatherDisplay:10.37 W/m2 BKN
16:25 27.3 °C 18.6 °C 1017.8 hPa SSW 4.8 km/h 4.8 km/h 59% 0 mm WeatherDisplay:10.37 W/m2 BKN
16:30 27.3 °C 19.6 °C 1017.5 hPa SSW 4.8 km/h 4.8 km/h 63% 0 mm WeatherDisplay:10.37 W/m2 BKN
16:40 27.3 °C 19.1 °C 1017.8 hPa SSW 4.8 km/h 4.8 km/h 61% 0 mm WeatherDisplay:10.37 W/m2 BKN
16:45 27.1 °C 19.4 °C 1017.8 hPa SSW 4.8 km/h 4.8 km/h 63% 0 mm WeatherDisplay:10.37 W/m2 BKN
16:50 26.6 °C 19.5 °C 1017.8 hPa SSW 4.8 km/h 4.8 km/h 65% 0 mm WeatherDisplay:10.37 W/m2 BKN
16:55 26.3 °C 19.7 °C 1017.8 hPa SSW 4.8 km/h 4.8 km/h 67% 0 mm WeatherDisplay:10.37 W/m2 BKN
17:00 26.2 °C 19.8 °C 1017.8 hPa SSW 4.8 km/h 4.8 km/h 68% 0 mm WeatherDisplay:10.37 W/m2 BKN
17:05 26.2 °C 19.4 °C 1017.8 hPa SSW 4.8 km/h 4.8 km/h 66% 0 mm WeatherDisplay:10.37 W/m2 BKN
17:10 26.1 °C 19.2 °C 1017.8 hPa SSW 4.8 km/h 4.8 km/h 66% 0 mm WeatherDisplay:10.37 W/m2 BKN
17:15 25.8 °C 19.5 °C 1017.5 hPa SSW 4.8 km/h 4.8 km/h 68% 0 mm WeatherDisplay:10.37 W/m2 BKN
17:20 25.6 °C 19.7 °C 1017.5 hPa SSW 4.8 km/h 4.8 km/h 70% 0 mm WeatherDisplay:10.37 W/m2 BKN
17:25 25.4 °C 19.3 °C 1017.5 hPa SSW 4.8 km/h 4.8 km/h 69% 0 mm WeatherDisplay:10.37 W/m2 BKN
17:30 25.4 °C 19.3 °C 1017.8 hPa SSW 4.8 km/h 4.8 km/h 69% 0 mm WeatherDisplay:10.37 W/m2 BKN
17:40 25.3 °C 18.7 °C 1017.8 hPa SSW 4.8 km/h 4.8 km/h 67% 0 mm WeatherDisplay:10.37 W/m2 BKN
17:45 25.1 °C 18.8 °C 1017.8 hPa SSW 4.8 km/h 4.8 km/h 68% 0 mm WeatherDisplay:10.37 W/m2 BKN
17:50 24.9 °C 19.1 °C 1017.8 hPa SSW 4.8 km/h 4.8 km/h 70% 0 mm WeatherDisplay:10.37 W/m2 BKN
17:55 24.8 °C 18.9 °C 1017.8 hPa SSW 4.8 km/h 4.8 km/h 70% 0 mm WeatherDisplay:10.37 W/m2 BKN
18:00 24.7 °C 19.1 °C 1017.8 hPa SSW 4.8 km/h 4.8 km/h 71% 0 mm WeatherDisplay:10.37 W/m2 BKN
18:10 24.7 °C 19.1 °C 1017.5 hPa SSW 4.8 km/h 4.8 km/h 71% 0 mm WeatherDisplay:10.37 W/m2 BKN
18:15 24.7 °C 19.1 °C 1017.5 hPa WNW 8 km/h 8 km/h 71% 0 mm WeatherDisplay:10.37 W/m2 SCT
18:20 24.7 °C 19.3 °C 1017.5 hPa NNW 8 km/h 8 km/h 72% 0 mm WeatherDisplay:10.37 W/m2 SCT
18:25 24.7 °C 19.3 °C 1017.5 hPa NNW 8 km/h 8 km/h 72% 0 mm WeatherDisplay:10.37 W/m2 SCT
18:30 24.7 °C 19.3 °C 1017.5 hPa NNW 8 km/h 8 km/h 72% 0 mm WeatherDisplay:10.37 W/m2 SCT
18:40 24.5 °C 19.1 °C 1017.5 hPa NNW 8 km/h 8 km/h 72% 0 mm WeatherDisplay:10.37 W/m2 SCT
18:45 24.5 °C 19.3 °C 1017.5 hPa NNW 8 km/h 8 km/h 73% 0 mm WeatherDisplay:10.37 W/m2 SCT
18:50 24.4 °C 19 °C 1017.8 hPa NNW 8 km/h 8 km/h 72% 0 mm WeatherDisplay:10.37 W/m2 SCT
18:55 24.3 °C 19.3 °C 1017.8 hPa NNW 8 km/h 8 km/h 74% 0 mm WeatherDisplay:10.37 W/m2 SCT
19:00 24.2 °C 19.2 °C 1017.8 hPa NNW 8 km/h 8 km/h 74% 0 mm WeatherDisplay:10.37 W/m2 SCT
19:05 24 °C 19.1 °C 1017.8 hPa NNW 8 km/h 8 km/h 74% 0 mm WeatherDisplay:10.37 W/m2 SCT
19:10 23.9 °C 18.9 °C 1017.5 hPa NNW 8 km/h 8 km/h 74% 0 mm WeatherDisplay:10.37 W/m2 SCT
19:20 23.7 °C 18.9 °C 1017.5 hPa North 4.8 km/h 4.8 km/h 75% 0 mm WeatherDisplay:10.37 W/m2 SCT
19:25 23.5 °C 19.1 °C 1017.5 hPa North 4.8 km/h 4.8 km/h 76% 0 mm WeatherDisplay:10.37 W/m2 SCT
19:30 23.4 °C 19.2 °C 1017.5 hPa North 4.8 km/h 4.8 km/h 77% 0 mm WeatherDisplay:10.37 W/m2 SCT
19:40 23.2 °C 19.2 °C 1017.8 hPa North 4.8 km/h 4.8 km/h 78% 0 mm WeatherDisplay:10.37 W/m2 SCT
19:45 23.2 °C 18.9 °C 1017.8 hPa North 4.8 km/h 4.8 km/h 77% 0 mm WeatherDisplay:10.37 W/m2 SCT
19:50 23.1 °C 18.8 °C 1017.8 hPa North 4.8 km/h 4.8 km/h 77% 0 mm WeatherDisplay:10.37 W/m2 SCT
19:55 23 °C 18.9 °C 1017.8 hPa North 4.8 km/h 4.8 km/h 78% 0 mm WeatherDisplay:10.37 W/m2 SCT
20:00 22.9 °C 18.8 °C 1017.8 hPa North 4.8 km/h 4.8 km/h 78% 0 mm WeatherDisplay:10.37 W/m2 SCT
20:05 22.7 °C 18.9 °C 1017.8 hPa North 4.8 km/h 4.8 km/h 79% 0 mm WeatherDisplay:10.37 W/m2 SCT
20:10 22.6 °C 19 °C 1018.2 hPa North 4.8 km/h 4.8 km/h 80% 0 mm WeatherDisplay:10.37 W/m2 SCT
20:15 22.4 °C 18.8 °C 1018.2 hPa North 4.8 km/h 4.8 km/h 80% 0 mm WeatherDisplay:10.37 W/m2 SCT
20:20 22.3 °C 18.9 °C 1018.2 hPa North 4.8 km/h 4.8 km/h 81% 0 mm WeatherDisplay:10.37 W/m2 SCT
20:25 22.2 °C 18.8 °C 1018.2 hPa North 4.8 km/h 4.8 km/h 81% 0 mm WeatherDisplay:10.37 W/m2 SCT
20:30 22.1 °C 18.8 °C 1018.2 hPa North 4.8 km/h 4.8 km/h 82% 0 mm WeatherDisplay:10.37 W/m2 SCT
20:40 21.8 °C 18.8 °C 1018.2 hPa North 4.8 km/h 4.8 km/h 83% 0 mm WeatherDisplay:10.37 W/m2 SCT
20:45 21.7 °C 18.7 °C 1018.5 hPa North 4.8 km/h 4.8 km/h 83% 0 mm WeatherDisplay:10.37 W/m2 SCT
20:50 21.6 °C 18.8 °C 1018.5 hPa North 4.8 km/h 4.8 km/h 84% 0 mm WeatherDisplay:10.37 W/m2 SCT
20:55 21.5 °C 18.7 °C 1018.5 hPa North 4.8 km/h 4.8 km/h 84% 0 mm WeatherDisplay:10.37 W/m2 SCT
21:00 21.4 °C 18.6 °C 1018.5 hPa North 4.8 km/h 4.8 km/h 84% 0 mm WeatherDisplay:10.37 W/m2 SCT
21:05 21.3 °C 18.7 °C 1018.5 hPa North 4.8 km/h 4.8 km/h 85% 0 mm WeatherDisplay:10.37 W/m2 SCT
21:10 21.3 °C 18.7 °C 1018.5 hPa North 4.8 km/h 4.8 km/h 85% 0 mm WeatherDisplay:10.37 W/m2 SCT
21:15 21.2 °C 18.8 °C 1018.5 hPa North 4.8 km/h 4.8 km/h 86% 0 mm WeatherDisplay:10.37 W/m2 FEW
21:20 21.1 °C 18.7 °C 1018.5 hPa North 4.8 km/h 4.8 km/h 86% 0 mm WeatherDisplay:10.37 W/m2 FEW
21:25 21 °C 18.4 °C 1018.5 hPa North 4.8 km/h 4.8 km/h 85% 0 mm WeatherDisplay:10.37 W/m2 FEW
21:30 20.9 °C 18.4 °C 1018.8 hPa North 4.8 km/h 4.8 km/h 86% 0 mm WeatherDisplay:10.37 W/m2 FEW
21:40 20.8 °C 18.3 °C 1018.8 hPa North 4.8 km/h 4.8 km/h 86% 0 mm WeatherDisplay:10.37 W/m2 FEW
21:45 20.7 °C 18.3 °C 1018.8 hPa North 4.8 km/h 4.8 km/h 86% 0 mm WeatherDisplay:10.37 W/m2 FEW
21:50 20.6 °C 18.2 °C 1018.8 hPa North 4.8 km/h 4.8 km/h 86% 0 mm WeatherDisplay:10.37 W/m2 FEW
21:55 20.6 °C 18.1 °C 1018.8 hPa North 4.8 km/h 4.8 km/h 86% 0 mm WeatherDisplay:10.37 W/m2 FEW
22:00 20.6 °C 18.3 °C 1018.8 hPa North 4.8 km/h 4.8 km/h 87% 0 mm WeatherDisplay:10.37 W/m2 FEW
22:05 20.5 °C 18.3 °C 1018.8 hPa North 4.8 km/h 4.8 km/h 87% 0 mm WeatherDisplay:10.37 W/m2 FEW
22:10 20.4 °C 18.2 °C 1018.8 hPa North 4.8 km/h 4.8 km/h 87% 0 mm WeatherDisplay:10.37 W/m2 FEW
22:15 20.4 °C 18.1 °C 1019.2 hPa North 4.8 km/h 4.8 km/h 87% 0 mm WeatherDisplay:10.37 W/m2 FEW
22:20 20.3 °C 18.1 °C 1019.2 hPa North 4.8 km/h 4.8 km/h 87% 0 mm WeatherDisplay:10.37 W/m2 FEW
22:25 20.3 °C 18.1 °C 1019.2 hPa North 4.8 km/h 4.8 km/h 87% 0 mm WeatherDisplay:10.37 W/m2 FEW
22:30 20.3 °C 18.2 °C 1019.2 hPa North 4.8 km/h 4.8 km/h 88% 0 mm WeatherDisplay:10.37 W/m2 FEW
22:35 20.3 °C 18.2 °C 1019.2 hPa North 4.8 km/h 4.8 km/h 88% 0 mm WeatherDisplay:10.37 W/m2 FEW
22:40 20.2 °C 18.2 °C 1019.2 hPa North 4.8 km/h 4.8 km/h 88% 0 mm WeatherDisplay:10.37 W/m2 FEW
22:45 20.2 °C 18.2 °C 1019.2 hPa North 4.8 km/h 4.8 km/h 88% 0 mm WeatherDisplay:10.37 W/m2 FEW
22:50 20.2 °C 18.2 °C 1019.2 hPa North 4.8 km/h 4.8 km/h 88% 0 mm WeatherDisplay:10.37 W/m2 FEW
22:55 20.2 °C 18.1 °C 1019.2 hPa North 4.8 km/h 4.8 km/h 88% 0 mm WeatherDisplay:10.37 W/m2 FEW
23:00 20.1 °C 18.2 °C 1019.2 hPa North 4.8 km/h 4.8 km/h 89% 0 mm WeatherDisplay:10.37 W/m2 FEW
23:10 20.1 °C 18.2 °C 1019.2 hPa North 4.8 km/h 4.8 km/h 89% 0 mm WeatherDisplay:10.37 W/m2 FEW
23:15 20.1 °C 18.2 °C 1019.2 hPa North 4.8 km/h 4.8 km/h 89% 0 mm WeatherDisplay:10.37 W/m2 BKN
23:30 20.1 °C 18.2 °C 1019.2 hPa North 4.8 km/h 4.8 km/h 89% 0 mm WeatherDisplay:10.37 W/m2 BKN
23:40 20.1 °C 18.2 °C 1019.2 hPa North 4.8 km/h 4.8 km/h 89% 0 mm WeatherDisplay:10.37 W/m2 BKN
23:45 20 °C 18.1 °C 1019.2 hPa North 4.8 km/h 4.8 km/h 89% 0 mm WeatherDisplay:10.37 W/m2 BKN
23:50 19.9 °C 18.1 °C 1019.2 hPa North 4.8 km/h 4.8 km/h 89% 0 mm WeatherDisplay:10.37 W/m2 BKN
23:55 19.9 °C 18.3 °C 1019.2 hPa North 4.8 km/h 4.8 km/h 90% 0 mm WeatherDisplay:10.37 W/m2 BKN
Piedmont Bend
Compliments of Weather Underground - 4 mb